createdAt,value
2018-07-14T00:00:58.694Z,15.30
2018-07-14T00:03:27.338Z,15.30
2018-07-14T00:05:55.472Z,15.20
2018-07-14T00:08:23.618Z,15.10
2018-07-14T00:10:51.754Z,15.10
2018-07-14T00:13:19.881Z,15.10
2018-07-14T00:15:48.024Z,15.00
2018-07-14T00:18:16.138Z,14.90
2018-07-14T00:20:44.325Z,14.90
2018-07-14T00:23:12.442Z,14.90
2018-07-14T00:25:46.076Z,14.80
2018-07-14T00:28:14.252Z,14.80
2018-07-14T00:30:42.519Z,14.70
2018-07-14T00:33:10.655Z,14.70
2018-07-14T00:35:38.784Z,14.70
2018-07-14T00:38:06.949Z,14.70
2018-07-14T00:40:35.082Z,14.60
2018-07-14T00:43:03.217Z,14.60
2018-07-14T00:45:31.345Z,14.60
2018-07-14T00:47:59.502Z,14.60
2018-07-14T00:50:27.678Z,14.50
2018-07-14T00:52:55.834Z,14.40
2018-07-14T00:55:24.004Z,14.40
2018-07-14T00:57:52.153Z,14.30
2018-07-14T01:00:20.305Z,14.30
2018-07-14T01:02:48.558Z,14.20
2018-07-14T01:05:16.728Z,14.20
2018-07-14T01:07:44.902Z,14.20
2018-07-14T01:10:13.117Z,14.20
2018-07-14T01:12:41.267Z,14.20
2018-07-14T01:15:09.423Z,14.20
2018-07-14T01:17:37.561Z,14.10
2018-07-14T01:20:05.667Z,14.10
2018-07-14T01:22:33.816Z,14.10
2018-07-14T01:25:01.950Z,14.10
2018-07-14T01:27:30.074Z,14.00
2018-07-14T01:29:58.205Z,14.00
2018-07-14T01:32:26.328Z,14.00
2018-07-14T01:34:54.483Z,14.00
2018-07-14T01:37:22.624Z,14.00
2018-07-14T01:39:50.911Z,14.00
2018-07-14T01:42:19.075Z,13.90
2018-07-14T01:44:47.303Z,13.90
2018-07-14T01:47:15.496Z,13.90
2018-07-14T01:49:43.677Z,13.90
2018-07-14T01:54:39.766Z,13.90
2018-07-14T01:57:07.938Z,13.80
2018-07-14T01:59:36.338Z,13.80
2018-07-14T02:02:04.473Z,13.70
2018-07-14T02:04:32.627Z,13.70
2018-07-14T02:07:00.782Z,13.70
2018-07-14T02:09:28.899Z,13.60
2018-07-14T02:11:57.030Z,13.60
2018-07-14T02:14:25.177Z,13.60
2018-07-14T02:16:53.364Z,13.60
2018-07-14T02:19:21.554Z,13.60
2018-07-14T02:21:49.738Z,13.50
2018-07-14T02:24:17.892Z,13.50
2018-07-14T02:26:46.082Z,13.50
2018-07-14T02:29:14.290Z,13.50
2018-07-14T02:31:42.422Z,13.50
2018-07-14T02:34:10.580Z,13.50
2018-07-14T02:36:38.741Z,13.50
2018-07-14T02:39:07.079Z,13.50
2018-07-14T02:46:31.522Z,13.40
2018-07-14T02:48:59.766Z,13.40
2018-07-14T02:53:55.818Z,13.40
2018-07-14T02:56:23.973Z,13.40
2018-07-14T02:58:52.112Z,13.30
2018-07-14T03:01:20.291Z,13.30
2018-07-14T03:03:48.455Z,13.30
2018-07-14T03:06:16.781Z,13.20
2018-07-14T03:08:44.918Z,13.20
2018-07-14T03:11:13.047Z,13.20
2018-07-14T03:13:41.201Z,13.10
2018-07-14T03:16:09.333Z,13.10
2018-07-14T03:18:37.484Z,13.10
2018-07-14T03:21:05.785Z,13.00
2018-07-14T03:23:33.980Z,13.00
2018-07-14T03:26:02.111Z,13.00
2018-07-14T03:28:30.285Z,13.00
2018-07-14T03:30:58.410Z,13.00
2018-07-14T03:33:26.573Z,13.00
2018-07-14T03:35:54.703Z,13.00
2018-07-14T03:38:22.834Z,13.00
2018-07-14T03:40:50.950Z,13.00
2018-07-14T03:43:19.090Z,13.00
2018-07-14T03:45:47.230Z,13.10
2018-07-14T03:48:15.373Z,13.10
2018-07-14T03:50:43.525Z,13.20
2018-07-14T03:53:11.658Z,13.20
2018-07-14T03:55:39.789Z,13.20
2018-07-14T03:58:07.922Z,13.20
2018-07-14T04:00:36.085Z,13.20
2018-07-14T04:03:04.205Z,13.20
2018-07-14T04:05:32.332Z,13.20
2018-07-14T04:08:00.463Z,13.20
2018-07-14T04:10:28.666Z,13.20
2018-07-14T04:12:56.788Z,13.10
2018-07-14T04:15:24.970Z,13.10
2018-07-14T04:17:58.458Z,13.10
2018-07-14T04:20:26.613Z,13.10
2018-07-14T04:22:54.759Z,13.20
2018-07-14T04:25:22.902Z,13.20
2018-07-14T04:27:51.084Z,13.20
2018-07-14T04:30:19.265Z,13.30
2018-07-14T04:32:47.412Z,13.40
2018-07-14T04:35:15.533Z,13.40
2018-07-14T04:37:43.689Z,13.50
2018-07-14T04:40:11.822Z,13.50
2018-07-14T04:42:39.978Z,13.60
2018-07-14T04:45:08.139Z,13.60
2018-07-14T04:47:36.277Z,13.70
2018-07-14T04:50:04.438Z,13.80
2018-07-14T04:52:32.575Z,13.90
2018-07-14T04:55:00.719Z,13.90
2018-07-14T04:57:28.872Z,14.00
2018-07-14T05:00:09.633Z,14.10
2018-07-14T05:02:37.795Z,14.10
2018-07-14T05:05:05.972Z,14.20
2018-07-14T05:07:34.251Z,14.30
2018-07-14T05:10:02.415Z,14.40
2018-07-14T05:12:30.593Z,14.50
2018-07-14T05:14:58.783Z,14.60
2018-07-14T05:17:26.971Z,14.70
2018-07-14T05:19:55.161Z,14.80
2018-07-14T05:22:23.319Z,14.90
2018-07-14T05:24:51.508Z,15.00
2018-07-14T05:27:19.650Z,15.10
2018-07-14T05:29:47.834Z,15.20
2018-07-14T05:32:15.983Z,15.30
2018-07-14T05:34:44.317Z,15.40
2018-07-14T05:37:12.484Z,15.50
2018-07-14T05:39:40.632Z,15.50
2018-07-14T05:42:08.839Z,15.60
2018-07-14T05:44:36.977Z,15.70
2018-07-14T05:47:05.231Z,15.80
2018-07-14T05:49:33.394Z,15.90
2018-07-14T05:52:01.657Z,16.00
2018-07-14T05:54:29.775Z,16.10
2018-07-14T05:56:58.292Z,16.20
2018-07-14T05:59:26.460Z,16.40
2018-07-14T06:01:54.628Z,16.60
2018-07-14T06:04:22.771Z,16.70
2018-07-14T06:06:50.965Z,16.90
2018-07-14T06:09:19.124Z,17.00
2018-07-14T06:11:47.307Z,17.20
2018-07-14T06:14:15.580Z,17.30
2018-07-14T06:16:43.796Z,17.40
2018-07-14T06:19:11.984Z,17.60
2018-07-14T06:21:40.139Z,17.70
2018-07-14T06:24:08.319Z,17.80
2018-07-14T06:26:36.474Z,18.00
2018-07-14T06:29:04.626Z,18.10
2018-07-14T06:31:32.784Z,18.20
2018-07-14T06:34:01.402Z,18.40
2018-07-14T06:36:29.916Z,18.50
2018-07-14T06:38:58.064Z,18.60
2018-07-14T06:41:26.323Z,18.80
2018-07-14T06:43:54.512Z,19.10
2018-07-14T06:46:22.691Z,19.30
2018-07-14T06:48:50.941Z,19.50
2018-07-14T06:51:19.084Z,19.60
2018-07-14T06:53:47.250Z,19.90
2018-07-14T06:56:15.387Z,20.10
2018-07-14T06:58:43.571Z,20.50
2018-07-14T07:01:11.708Z,21.10
2018-07-14T07:03:39.904Z,21.60
2018-07-14T07:06:08.076Z,22.20
2018-07-14T07:08:36.932Z,22.60
2018-07-14T07:11:05.110Z,23.00
2018-07-14T07:13:33.362Z,23.30
2018-07-14T07:16:01.488Z,23.60
2018-07-14T07:18:29.648Z,23.90
2018-07-14T07:20:57.817Z,24.20
2018-07-14T07:23:26.008Z,24.40
2018-07-14T07:25:54.476Z,24.70
2018-07-14T07:28:22.660Z,25.00
2018-07-14T07:30:50.824Z,25.20
2018-07-14T07:33:19.008Z,25.50
2018-07-14T07:35:47.174Z,25.70
2018-07-14T07:38:36.372Z,25.90
2018-07-14T07:41:05.392Z,26.20
2018-07-14T07:43:33.565Z,26.50
2018-07-14T07:46:01.717Z,26.80
2018-07-14T07:48:29.880Z,27.10
2018-07-14T07:50:58.352Z,27.40
2018-07-14T07:53:26.551Z,27.50
2018-07-14T07:55:54.762Z,27.70
2018-07-14T07:58:22.940Z,27.90
2018-07-14T08:00:51.125Z,28.10
2018-07-14T08:03:19.291Z,28.40
2018-07-14T08:05:47.461Z,28.50
2018-07-14T08:08:15.625Z,28.70
2018-07-14T08:10:43.791Z,28.90
2018-07-14T08:13:12.114Z,29.00
2018-07-14T08:15:40.300Z,29.20
2018-07-14T08:18:08.493Z,29.20
2018-07-14T08:20:36.653Z,29.20
2018-07-14T08:23:05.021Z,29.40
2018-07-14T08:25:33.203Z,29.50
2018-07-14T08:28:01.395Z,29.70
2018-07-14T08:30:29.544Z,29.80
2018-07-14T08:32:57.696Z,29.90
2018-07-14T08:35:25.871Z,30.00
2018-07-14T08:37:54.243Z,30.10
2018-07-14T08:40:22.503Z,30.10
2018-07-14T08:42:50.667Z,30.20
2018-07-14T08:45:18.834Z,30.20
2018-07-14T08:47:47.132Z,30.50
2018-07-14T08:50:15.272Z,30.70
2018-07-14T08:52:43.435Z,30.80
2018-07-14T08:55:11.635Z,31.00
2018-07-14T08:57:39.780Z,31.10
2018-07-14T09:00:07.982Z,31.10
2018-07-14T09:02:36.354Z,31.30
2018-07-14T09:05:04.638Z,31.40
2018-07-14T09:07:32.885Z,31.60
2018-07-14T09:10:01.041Z,31.70
2018-07-14T09:12:29.191Z,31.80
2018-07-14T09:14:57.346Z,31.80
2018-07-14T09:17:25.507Z,31.90
2018-07-14T09:19:53.703Z,32.00
2018-07-14T09:22:21.915Z,32.00
2018-07-14T09:24:50.087Z,32.10
2018-07-14T09:27:18.324Z,32.30
2018-07-14T09:29:46.458Z,32.30
2018-07-14T09:32:14.636Z,32.50
2018-07-14T09:37:10.740Z,32.50
2018-07-14T09:39:39.141Z,32.60
2018-07-14T09:42:07.312Z,32.60
2018-07-14T09:44:35.536Z,32.40
2018-07-14T09:47:03.641Z,32.50
2018-07-14T09:49:31.786Z,32.50
2018-07-14T09:51:59.977Z,32.50
2018-07-14T09:54:28.175Z,32.80
2018-07-14T09:56:56.483Z,32.80
2018-07-14T09:59:24.701Z,32.80
2018-07-14T10:01:52.875Z,32.90
2018-07-14T10:04:21.047Z,33.10
2018-07-14T10:06:49.245Z,33.20
2018-07-14T10:09:17.411Z,33.50
2018-07-14T10:11:45.603Z,33.70
2018-07-14T10:14:13.739Z,33.50
2018-07-14T10:16:41.971Z,33.70
2018-07-14T10:19:10.140Z,33.80
2018-07-14T10:21:38.419Z,34.10
2018-07-14T10:24:06.645Z,34.40
2018-07-14T10:26:34.868Z,34.70
2018-07-14T10:29:03.216Z,35.00
2018-07-14T10:31:31.563Z,35.10
2018-07-14T10:33:59.918Z,35.10
2018-07-14T10:36:28.008Z,35.40
2018-07-14T10:41:24.154Z,35.90
2018-07-14T10:43:52.377Z,36.10
2018-07-14T10:46:20.568Z,36.20
2018-07-14T10:48:48.758Z,36.20
2018-07-14T10:51:16.928Z,36.20
2018-07-14T10:53:45.079Z,36.40
2018-07-14T10:56:13.237Z,36.20
2018-07-14T10:58:41.946Z,35.50
2018-07-14T11:01:10.342Z,34.70
2018-07-14T11:03:38.535Z,33.70
2018-07-14T11:06:06.774Z,32.80
2018-07-14T11:08:34.936Z,32.10
2018-07-14T11:11:04.131Z,31.60
2018-07-14T11:13:32.746Z,31.10
2018-07-14T11:16:00.973Z,30.80
2018-07-14T11:20:57.155Z,30.20
2018-07-14T11:23:25.286Z,29.90
2018-07-14T11:25:53.454Z,29.70
2018-07-14T11:28:21.614Z,29.60
2018-07-14T11:30:49.810Z,29.50
2018-07-14T11:33:17.990Z,29.40
2018-07-14T11:35:46.126Z,28.80
2018-07-14T11:38:14.302Z,28.20
2018-07-14T11:40:42.448Z,27.90
2018-07-14T11:43:10.645Z,27.80
2018-07-14T11:45:38.778Z,28.00
2018-07-14T11:48:06.943Z,28.20
2018-07-14T11:50:35.299Z,28.40
2018-07-14T11:53:03.506Z,28.50
2018-07-14T11:55:31.777Z,28.70
2018-07-14T11:57:59.965Z,28.90
2018-07-14T12:00:28.142Z,29.30
2018-07-14T12:02:56.385Z,29.80
2018-07-14T12:05:24.543Z,30.40
2018-07-14T12:07:52.725Z,31.60
2018-07-14T12:10:20.953Z,32.60
2018-07-14T12:12:49.105Z,33.50
2018-07-14T12:15:17.273Z,34.10
2018-07-14T12:17:45.441Z,34.60
2018-07-14T12:20:13.768Z,34.60
2018-07-14T12:22:41.943Z,34.50
2018-07-14T12:25:10.117Z,34.70
2018-07-14T12:27:38.547Z,35.30
2018-07-14T12:30:06.753Z,35.90
2018-07-14T12:32:34.898Z,36.30
2018-07-14T12:35:03.054Z,36.50
2018-07-14T12:37:31.299Z,36.10
2018-07-14T12:40:02.818Z,35.20
2018-07-14T12:42:31.047Z,34.70
2018-07-14T12:44:59.190Z,34.00
2018-07-14T12:47:28.299Z,33.30
2018-07-14T12:49:56.481Z,32.90
2018-07-14T12:52:24.707Z,32.40
2018-07-14T12:54:52.923Z,32.20
2018-07-14T12:57:21.126Z,32.10
2018-07-14T12:59:50.245Z,32.10
2018-07-14T13:02:18.572Z,32.10
2018-07-14T13:04:46.767Z,32.30
2018-07-14T13:07:15.351Z,32.50
2018-07-14T13:09:43.483Z,32.70
2018-07-14T13:14:40.258Z,33.10
2018-07-14T13:17:09.023Z,33.00
2018-07-14T13:22:06.428Z,32.80
2018-07-14T13:24:34.622Z,32.80
2018-07-14T13:27:02.775Z,33.00
2018-07-14T13:29:31.350Z,32.90
2018-07-14T13:32:00.171Z,32.90
2018-07-14T13:34:28.456Z,32.90
2018-07-14T13:36:56.742Z,32.60
2018-07-14T13:39:25.242Z,33.00
2018-07-14T13:41:54.609Z,33.80
2018-07-14T13:44:22.786Z,34.90
2018-07-14T13:46:51.130Z,35.80
2018-07-14T13:49:19.670Z,36.30
2018-07-14T13:51:47.953Z,36.70
2018-07-14T13:54:16.357Z,37.10
2018-07-14T13:56:44.652Z,37.50
2018-07-14T13:59:15.002Z,37.90
2018-07-14T14:01:43.347Z,37.70
2018-07-14T14:04:11.532Z,38.10
2018-07-14T14:06:39.682Z,38.70
2018-07-14T14:09:08.148Z,39.00
2018-07-14T14:11:36.478Z,39.60
2018-07-14T14:14:04.778Z,39.30
2018-07-14T14:16:33.070Z,39.00
2018-07-14T14:19:01.339Z,38.20
2018-07-14T14:21:29.558Z,38.10
2018-07-14T14:23:57.728Z,38.40
2018-07-14T14:26:25.961Z,38.90
2018-07-14T14:28:54.222Z,39.20
2018-07-14T14:31:22.490Z,39.20
2018-07-14T14:33:50.695Z,39.00
2018-07-14T14:36:19.390Z,38.60
2018-07-14T14:38:47.642Z,38.60
2018-07-14T14:41:15.938Z,38.50
2018-07-14T14:43:45.588Z,38.60
2018-07-14T14:46:13.755Z,38.30
2018-07-14T14:48:41.990Z,38.40
2018-07-14T14:51:10.259Z,38.40
2018-07-14T14:53:38.651Z,38.90
2018-07-14T14:56:06.902Z,39.00
2018-07-14T14:58:35.024Z,38.40
2018-07-14T15:01:03.251Z,37.80
2018-07-14T15:03:31.395Z,37.30
2018-07-14T15:05:59.543Z,37.00
2018-07-14T15:08:27.790Z,36.40
2018-07-14T15:10:55.982Z,36.20
2018-07-14T15:13:24.327Z,36.00
2018-07-14T15:15:52.513Z,35.80
2018-07-14T15:18:20.825Z,35.40
2018-07-14T15:20:49.046Z,34.70
2018-07-14T15:23:17.446Z,34.30
2018-07-14T15:25:45.798Z,34.10
2018-07-14T15:28:15.075Z,34.30
2018-07-14T15:30:43.422Z,34.90
2018-07-14T15:33:12.139Z,35.00
2018-07-14T15:35:40.290Z,35.00
2018-07-14T15:38:08.738Z,34.60
2018-07-14T15:40:36.938Z,34.10
2018-07-14T15:43:05.355Z,33.50
2018-07-14T15:45:33.570Z,32.60
2018-07-14T15:48:02.934Z,32.20
2018-07-14T15:50:31.185Z,31.80
2018-07-14T15:53:00.470Z,31.90
2018-07-14T15:55:28.691Z,32.40
2018-07-14T15:57:56.888Z,33.30
2018-07-14T16:00:25.231Z,34.10
2018-07-14T16:02:53.446Z,34.50
2018-07-14T16:05:21.741Z,34.80
2018-07-14T16:07:50.063Z,35.30
2018-07-14T16:10:18.366Z,35.50
2018-07-14T16:12:46.573Z,36.00
2018-07-14T16:15:14.957Z,36.40
2018-07-14T16:17:43.201Z,36.70
2018-07-14T16:20:11.539Z,36.70
2018-07-14T16:22:39.801Z,37.00
2018-07-14T16:25:10.103Z,37.30
2018-07-14T16:27:38.390Z,37.40
2018-07-14T16:30:06.793Z,37.50
2018-07-14T16:32:35.151Z,37.30
2018-07-14T16:35:03.673Z,37.20
2018-07-14T16:37:31.912Z,37.30
2018-07-14T16:40:00.319Z,37.20
2018-07-14T16:42:28.870Z,36.90
2018-07-14T16:44:57.037Z,36.50
2018-07-14T16:47:25.198Z,35.90
2018-07-14T16:49:53.407Z,35.20
2018-07-14T16:52:21.661Z,34.60
2018-07-14T16:54:49.874Z,34.00
2018-07-14T16:57:18.238Z,33.50
2018-07-14T16:59:46.442Z,33.30
2018-07-14T17:02:15.056Z,33.10
2018-07-14T17:04:43.387Z,32.80
2018-07-14T17:07:11.974Z,32.40
2018-07-14T17:09:40.365Z,31.90
2018-07-14T17:12:09.104Z,31.60
2018-07-14T17:14:38.112Z,31.40
2018-07-14T17:17:07.563Z,31.20
2018-07-14T17:19:35.915Z,30.90
2018-07-14T17:22:33.593Z,30.50
2018-07-14T17:25:02.463Z,30.30
2018-07-14T17:27:31.613Z,30.00
2018-07-14T17:32:55.170Z,29.40
2018-07-14T17:35:24.778Z,29.10
2018-07-14T17:37:55.455Z,28.80
2018-07-14T17:40:23.671Z,28.70
2018-07-14T17:42:51.849Z,28.50
2018-07-14T17:45:20.119Z,28.40
2018-07-14T17:47:48.327Z,28.20
2018-07-14T17:50:16.540Z,28.10
2018-07-14T17:52:45.603Z,28.00
2018-07-14T17:55:13.772Z,27.90
2018-07-14T17:57:41.939Z,27.80
2018-07-14T18:00:10.107Z,27.60
2018-07-14T18:02:38.315Z,27.60
2018-07-14T18:05:06.467Z,27.50
2018-07-14T18:07:34.670Z,27.40
2018-07-14T18:10:02.934Z,27.30
2018-07-14T18:12:31.131Z,27.20
2018-07-14T18:14:59.376Z,27.10
2018-07-14T18:17:27.618Z,27.00
2018-07-14T18:19:55.753Z,26.90
2018-07-14T18:22:23.908Z,26.70
2018-07-14T18:24:52.059Z,26.60
2018-07-14T18:27:20.224Z,26.40
2018-07-14T18:29:48.409Z,26.30
2018-07-14T18:32:16.560Z,26.10
2018-07-14T18:34:44.742Z,26.00
2018-07-14T18:37:12.903Z,25.90
2018-07-14T18:39:41.101Z,25.70
2018-07-14T18:42:09.281Z,25.60
2018-07-14T18:44:37.569Z,25.50
2018-07-14T18:47:05.770Z,25.40
2018-07-14T18:49:34.009Z,25.20
2018-07-14T18:52:02.207Z,25.10
2018-07-14T18:54:30.392Z,25.00
2018-07-14T18:56:58.563Z,24.90
2018-07-14T18:59:26.774Z,24.80
2018-07-14T19:01:54.931Z,24.70
2018-07-14T19:04:23.164Z,24.60
2018-07-14T19:06:51.410Z,24.40
2018-07-14T19:09:19.555Z,24.30
2018-07-14T19:11:47.769Z,24.10
2018-07-14T19:14:16.037Z,24.00
2018-07-14T19:16:44.212Z,23.80
2018-07-14T19:19:12.448Z,23.70
2018-07-14T19:21:40.607Z,23.60
2018-07-14T19:24:08.847Z,23.40
2018-07-14T19:26:37.077Z,23.30
2018-07-14T19:29:05.374Z,23.20
2018-07-14T19:31:33.721Z,23.10
2018-07-14T19:34:01.894Z,23.00
2018-07-14T19:36:30.101Z,22.80
2018-07-14T19:38:58.296Z,22.80
2018-07-14T19:41:26.490Z,22.70
2018-07-14T19:46:22.779Z,22.40
2018-07-14T19:48:51.075Z,22.30
2018-07-14T19:51:19.365Z,22.20
2018-07-14T19:53:47.547Z,22.00
2018-07-14T19:56:15.831Z,21.90
2018-07-14T19:58:43.961Z,21.80
2018-07-14T20:01:12.130Z,21.60
2018-07-14T20:03:40.584Z,21.50
2018-07-14T20:06:08.826Z,21.40
2018-07-14T20:08:36.984Z,21.30
2018-07-14T20:13:33.115Z,21.20
2018-07-14T20:16:01.342Z,21.10
2018-07-14T20:18:29.519Z,21.00
2018-07-14T20:20:57.807Z,21.00
2018-07-14T20:23:26.028Z,20.90
2018-07-14T20:25:54.179Z,20.80
2018-07-14T20:28:22.332Z,20.70
2018-07-14T20:30:50.774Z,20.70
2018-07-14T20:33:18.995Z,20.70
2018-07-14T20:35:47.275Z,20.70
2018-07-14T20:38:15.500Z,20.70
2018-07-14T20:40:45.383Z,20.70
2018-07-14T20:43:13.605Z,20.70
2018-07-14T20:45:41.817Z,20.60
2018-07-14T20:48:09.963Z,20.60
2018-07-14T20:50:38.148Z,20.60
2018-07-14T20:53:06.403Z,20.50
2018-07-14T20:55:34.735Z,20.50
2018-07-14T20:58:03.044Z,20.40
2018-07-14T21:00:31.311Z,20.30
2018-07-14T21:02:59.609Z,20.30
2018-07-14T21:05:27.898Z,20.20
2018-07-14T21:07:56.120Z,20.20
2018-07-14T21:10:24.279Z,20.20
2018-07-14T21:12:52.600Z,20.10
2018-07-14T21:15:20.940Z,20.00
2018-07-14T21:17:49.231Z,19.90
2018-07-14T21:20:17.466Z,19.80
2018-07-14T21:22:45.627Z,19.80
2018-07-14T21:25:13.786Z,19.70
2018-07-14T21:27:41.957Z,19.60
2018-07-14T21:32:38.076Z,19.40
2018-07-14T21:35:06.514Z,19.40
2018-07-14T21:37:34.666Z,19.30
2018-07-14T21:40:02.872Z,19.20
2018-07-14T21:42:31.022Z,19.10
2018-07-14T21:44:59.175Z,19.10
2018-07-14T21:49:55.332Z,18.90
2018-07-14T21:52:23.549Z,18.80
2018-07-14T21:54:51.696Z,18.80
2018-07-14T21:57:19.839Z,18.80
2018-07-14T21:59:47.995Z,18.70
2018-07-14T22:02:16.189Z,18.70
2018-07-14T22:04:44.365Z,18.70
2018-07-14T22:07:12.621Z,18.60
2018-07-14T22:09:40.724Z,18.60
2018-07-14T22:12:08.991Z,18.50
2018-07-14T22:14:37.264Z,18.40
2018-07-14T22:17:05.808Z,18.40
2018-07-14T22:19:33.983Z,18.30
2018-07-14T22:22:02.175Z,18.20
2018-07-14T22:24:30.348Z,18.10
2018-07-14T22:26:58.539Z,18.00
2018-07-14T22:29:26.787Z,17.90
2018-07-14T22:31:54.871Z,17.90
2018-07-14T22:34:23.079Z,17.90
2018-07-14T22:36:51.245Z,17.90
2018-07-14T22:39:19.428Z,17.90
2018-07-14T22:41:48.793Z,17.80
2018-07-14T22:44:17.724Z,17.80
2018-07-14T22:46:45.901Z,17.80
2018-07-14T22:49:14.118Z,17.80
2018-07-14T22:51:42.290Z,17.70
2018-07-14T22:54:10.459Z,17.70
2018-07-14T22:56:39.074Z,17.70
2018-07-14T22:59:07.229Z,17.70
2018-07-14T23:01:35.388Z,17.60
2018-07-14T23:04:03.592Z,17.60
2018-07-14T23:06:31.769Z,17.60
2018-07-14T23:09:00.024Z,17.60
2018-07-14T23:11:28.192Z,17.60
2018-07-14T23:13:56.453Z,17.60
2018-07-14T23:16:24.632Z,17.50
2018-07-14T23:18:52.833Z,17.50
2018-07-14T23:21:21.003Z,17.40
2018-07-14T23:23:49.190Z,17.40
2018-07-14T23:26:17.367Z,17.30
2018-07-14T23:28:45.517Z,17.30
2018-07-14T23:31:13.690Z,17.30
2018-07-14T23:33:41.852Z,17.20
2018-07-14T23:36:10.022Z,17.10
2018-07-14T23:38:38.299Z,17.10
2018-07-14T23:41:06.508Z,17.00
2018-07-14T23:43:34.707Z,17.00
2018-07-14T23:46:02.894Z,16.90
2018-07-14T23:48:31.082Z,16.90
2018-07-14T23:50:59.243Z,16.80
2018-07-14T23:53:27.444Z,16.80
2018-07-14T23:55:55.616Z,16.70
2018-07-14T23:58:23.779Z,16.70
